NEODyS-2

Near Earth Objects - Dynamic Site
NEODyS ∴ Observatories ∴ Site 691 ∴ Obs & residuals
Contact »
691  ▹ 
OBSERVATIONS AND RESIDUALS

691-Steward Observatory, Kitt Peak-Spacewatch

Detections | Residuals | Detections & Residuals

[1-200] [201-400] [401-600] [601-800] [801-1000] [1001-1200] [1201-1400] [1401-1600] [1601-1800] [1801-2000] [2001-2200] [2201-2400] [2401-2600] [2601-2800] [2801-3000] [3001-3200] [3201-3400] [3401-3600] [3601-3800] [3801-4000] [4001-4200] [4201-4400] [4401-4600] [4601-4800] [4801-5000] [5001-5200] [5201-5400] [5401-5600] [5601-5800] [5801-6000] [6001-6200] [6201-6400] [6401-6600] [6601-6800] [6801-7000] [7001-7200] [7201-7400] [7401-7600] [7601-7800] [7801-8000] [8001-8200] [8201-8400] [8401-8600] [8601-8800] [8801-9000] [9001-9200] [9201-9400] [9401-9600] [9601-9800] [9801-10000] [10001-10200] [10201-10400] [10401-10600] [10601-10800] [10801-11000] [11001-11200] [11201-11400] [11401-11600] [11601-11800] [11801-12000] [12001-12200] [12201-12400] [12401-12600] [12601-12800] [12801-13000] [13001-13200] [13201-13400] [13401-13600] [13601-13800] [13801-14000] [14001-14200] [14201-14400] [14401-14600] [14601-14800] [14801-15000] [15001-15200] [15201-15400] [15401-15600] [15601-15800] [15801-16000] [16001-16200] [16201-16400] [16401-16600] [16601-16800] [16801-17000] [17001-17200] [17201-17400] [17401-17600] [17601-17800] [17801-18000] [18001-18200] [18201-18400] [18401-18600] [18601-18800] [18801-19000] [19001-19200] [19201-19400] [19401-19600] [19601-19800] [19801-20000] [20001-20200] [20201-20400] [20401-20600] [20601-20800] [20801-21000] [21001-21200] [21201-21400] [21401-21600] [21601-21800] [21801-22000] [22001-22200] [22201-22400] [22401-22600] [22601-22800] [22801-23000] [23001-23200] [23201-23400] [23401-23600] [23601-23800] [23801-24000] [24001-24200] [24201-24400] [24401-24600] [24601-24800] [24801-25000] [25001-25200] [25201-25400] [25401-25600] [25601-25800] [25801-26000] [26001-26200] [26201-26400] [26401-26600] [26601-26800] [26801-27000] [27001-27200] [27201-27400] [27401-27600] [27601-27800] [27801-28000] [28001-28200] [28201-28400] [28401-28600] [28601-28800] [28801-29000] [29001-29200] [29201-29400] [29401-29600] [29601-29800] [29801-30000] [30001-30200] [30201-30400] [30401-30600] [30601-30800] [30801-31000] [31001-31200] [31201-31400] [31401-31600] [31601-31800] [31801-32000] [32001-32200] [32201-32400] [32401-32600] [32601-32800] [32801-33000] [33001-33200] [33201-33400] [33401-33600] [33601-33800] [33801-34000] [34001-34200] [34201-34400] [34401-34600] [34601-34800] [34801-35000] [35001-35200] [35201-35400] [35401-35600] [35601-35800] [35801-36000] [36001-36200] [36201-36400] [36401-36600] [36601-36800] [36801-37000] [37001-37200] [37201-37400] [37401-37600] [37601-37800] [37801-38000] [38001-38200] [38201-38400] [38401-38600] [38601-38800] [38801-39000] [39001-39200] [39201-39400] [39401-39600] [39601-39800] [39801-40000] [40001-40200] [40201-40400] [40401-40600] [40601-40800] [40801-41000] [41001-41200] [41201-41400] [41401-41600] [41601-41800] [41801-42000] [42001-42200] [42201-42400] [42401-42600] [42601-42800] [42801-43000] [43001-43200] [43201-43400] [43401-43600] [43601-43800] [43801-44000] [44001-44200] [44201-44400] [44401-44600] [44601-44800] [44801-45000] [45001-45200] [45201-45400] [45401-45600] [45601-45800] [45801-46000] [46001-46200] [46201-46400] [46401-46600] [46601-46800] [46801-47000] [47001-47200] [47201-47400] [47401-47600] [47601-47800] [47801-48000] [48001-48200] [48201-48400] [48401-48600] [48601-48800] [48801-49000] [49001-49200] [49201-49400] [49401-49600] [49601-49800] [49801-50000] [50001-50200] [50201-50388]

Designation T Tech N Date Right Ascension Declination Apparent Magnitude Star Catalog Site code χ Used A Used M
yr-mo-day precision hr:min:sec precision rms F bias residual deg min sec precision rms F bias residual mag/col rms residual
2017YO4 O C K 2018-01-13.19208 1.000E-05 03:27:27.180 1.500E-01 0.500 F -0.140 0.187 +00° 32' 52.50" 1.000E-01 0.500 F 0.183 -0.035 o 691 0.39 Yes No
2018AU O C K 2018-01-13.20463 1.000E-05 03:55:20.500 1.500E-01 0.500 F -0.160 -0.489 +12° 17' 53.00" 1.000E-01 0.500 F 0.146 0.541 o 691 1.90 Yes No
2017YO4 O C K 2018-01-13.21599 1.000E-05 03:27:21.620 1.500E-01 0.500 F -0.140 0.231 +00° 32' 38.90" 1.000E-01 0.500 F 0.183 -0.069 o 691 0.50 Yes No
2013OW2 O C K 2018-01-13.24367 1.000E-05 04:12:24.700 1.500E-01 0.500 F -0.156 0.387 +06° 18' 54.40" 1.000E-01 0.500 F 0.348 -0.186 o 691 0.88 Yes No
2013OW2 O C K 2018-01-13.25767 1.000E-05 04:12:22.770 1.500E-01 0.500 F -0.156 0.390 +06° 18' 45.60" 1.000E-01 0.500 F 0.348 -0.461 o 691 1.24 Yes No
2013OW2 O C K 2018-01-13.27164 1.000E-05 04:12:20.830 1.500E-01 0.500 F -0.156 0.114 +06° 18' 37.10" 1.000E-01 0.500 F 0.348 -0.447 o 691 0.98 Yes No
2018AX3 O C K 2018-01-13.29825 1.000E-05 05:10:56.380 1.500E-01 0.500 F -0.232 0.403 +17° 53' 18.80" 1.000E-01 0.500 F 0.185 -0.226 o 691 0.94 Yes No
2018AX3 O C K 2018-01-13.31270 1.000E-05 05:10:57.570 1.500E-01 0.500 F -0.232 0.042 +17° 51' 43.50" 1.000E-01 0.500 F 0.185 0.012 o 691 0.09 Yes No
2018AF3 O C K 2018-01-13.39792 1.000E-05 08:49:37.190 1.500E-01 0.500 F 0.178 -0.244 +08° 48' 46.00" 1.000E-01 0.500 F 0.191 -0.081 o 691 0.52 Yes No
2018AF3 O C K 2018-01-13.40724 1.000E-05 08:49:36.350 1.500E-01 0.500 F 0.178 0.421 +08° 48' 58.90" 1.000E-01 0.500 F 0.191 -0.227 o 691 0.97 Yes No
2018AF3 O C K 2018-01-13.41659 1.000E-05 08:49:35.420 1.500E-01 0.500 F 0.178 -0.222 +08° 49' 11.80" 1.000E-01 0.500 F 0.191 -0.408 o 691 0.94 Yes No
2017YQ3 O C K 2018-01-13.46169 1.000E-05 09:26:35.170 1.500E-01 0.500 F 0.203 -0.281 +03° 24' 19.20" 1.000E-01 0.500 F 0.177 -0.387 o 691 0.97 Yes No
2017YQ3 O C K 2018-01-13.46993 1.000E-05 09:26:34.330 1.500E-01 0.500 F 0.203 -0.479 +03° 24' 21.00" 1.000E-01 0.500 F 0.177 0.024 o 691 0.97 Yes No
2017YQ3 O C K 2018-01-13.47816 1.000E-05 09:26:33.550 1.500E-01 0.500 F 0.203 0.193 +03° 24' 23.00" 1.000E-01 0.500 F 0.177 0.638 o 691 1.35 Yes No
2016GA222 O C K 2018-01-14.07840 1.000E-05 00:23:55.610 1.500E-01 0.500 F -0.209 0.170 -18° 27' 59.80" 1.000E-01 0.500 F 0.172 -0.508 o 691 1.09 Yes No
2016GA222 O C K 2018-01-14.09164 1.000E-05 00:23:58.390 1.500E-01 0.500 F -0.209 -0.049 -18° 28' 04.30" 1.000E-01 0.500 F 0.172 0.006 o 691 0.10 Yes No
2016GA222 O C K 2018-01-14.10479 1.000E-05 00:24:01.240 1.500E-01 0.500 F -0.209 0.962 -18° 28' 09.30" 1.000E-01 0.500 F 0.172 -0.035 o 691 1.94 Yes No
2017RD15 O C K 2018-01-14.13095 1.000E-05 00:34:54.620 1.500E-01 0.500 F -0.299 0.014 -00° 18' 32.40" 1.000E-01 0.500 F 0.258 -0.158 o 691 0.32 Yes No
2017RD15 O C K 2018-01-14.14028 1.000E-05 00:34:56.130 1.500E-01 0.500 F -0.299 0.699 -00° 18' 17.10" 1.000E-01 0.500 F 0.258 -0.359 o 691 1.58 Yes No
2017XG2 O C K 2018-01-14.15098 1.000E-05 01:37:30.050 1.500E-01 0.500 F -0.243 -0.031 +02° 09' 25.00" 1.000E-01 0.500 F 0.315 -0.006 o 691 0.07 Yes No
2007AG O C 2018-01-14.15098 1.000E-05 01:36:57.200 1.500E-01 0.500 F -0.243 -0.327 +02° 38' 36.70" 1.000E-01 0.500 F 0.315 0.012 18.6 V 0.70 0.25 o 691 0.66 Yes Yes
2017XG2 O C K 2018-01-14.15853 1.000E-05 01:37:29.280 1.500E-01 0.500 F -0.243 0.224 +02° 08' 55.50" 1.000E-01 0.500 F 0.315 -0.210 o 691 0.64 Yes No
2007AG O C 2018-01-14.15853 1.000E-05 01:36:59.300 1.500E-01 0.500 F -0.243 0.651 +02° 38' 16.00" 1.000E-01 0.500 F 0.315 -0.100 18.2 V 0.70 -0.15 o 691 1.32 Yes Yes
2017XG2 O C K 2018-01-14.16606 1.000E-05 01:37:28.500 1.500E-01 0.500 F -0.243 0.230 +02° 08' 26.40" 1.000E-01 0.500 F 0.315 -0.083 o 691 0.51 Yes No
2007AG O C 2018-01-14.16606 1.000E-05 01:37:01.280 1.500E-01 0.500 F -0.243 -0.152 +02° 37' 55.40" 1.000E-01 0.500 F 0.315 -0.172 18.5 V 0.70 0.15 o 691 0.46 Yes Yes
2017SV20 O C K 2018-01-14.18461 1.000E-05 02:47:07.370 1.500E-01 0.500 F -0.136 0.263 -05° 50' 38.80" 1.000E-01 0.500 F 0.370 0.067 o 691 0.55 Yes No
2017SV20 O C K 2018-01-14.20106 1.000E-05 02:47:07.690 1.500E-01 0.500 F -0.136 1.195 -05° 50' 14.50" 1.000E-01 0.500 F 0.370 0.312 o 691 2.48 Yes No
2017SV20 O C K 2018-01-14.21819 1.000E-05 02:47:07.870 1.500E-01 0.500 F -0.136 -0.173 -05° 49' 50.30" 1.000E-01 0.500 F 0.370 -0.542 o 691 1.14 Yes No
2018AW11 O C H 2018-01-14.29209 1.000E-05 05:06:32.480 1.500E-01 0.500 F -0.092 -0.173 +15° 49' 24.60" 1.000E-01 0.500 F 0.196 0.165 o 691 0.49 Yes No
2018AW11 O C H 2018-01-14.29319 1.000E-05 05:06:33.310 1.500E-01 0.500 F -0.092 0.027 +15° 49' 52.30" 1.000E-01 0.500 F 0.196 0.051 o 691 0.12 Yes No
2018AW11 O C H 2018-01-14.29428 1.000E-05 05:06:34.140 1.500E-01 0.500 F -0.092 0.328 +15° 50' 19.50" 1.000E-01 0.500 F 0.196 -0.299 o 691 0.91 Yes No
2018AE12 O C K 2018-01-14.30064 1.000E-05 07:35:35.410 1.500E-01 0.500 F -0.054 -0.427 +12° 24' 49.70" 1.000E-01 0.500 F 0.175 -0.114 o 691 0.90 Yes No
2018AE12 O C K 2018-01-14.30720 1.000E-05 07:35:33.830 1.500E-01 0.500 F -0.054 -0.214 +12° 25' 09.10" 1.000E-01 0.500 F 0.175 0.185 o 691 0.57 Yes No
2018AE12 O C K 2018-01-14.31375 1.000E-05 07:35:32.250 1.500E-01 0.500 F -0.054 -0.048 +12° 25' 27.80" 1.000E-01 0.500 F 0.175 -0.168 o 691 0.35 Yes No
2018AK2 O C K 2018-01-14.32045 1.000E-05 08:01:20.750 1.500E-01 0.500 F 0.027 -0.369 +15° 13' 28.50" 1.000E-01 0.500 F 0.179 -0.340 o 691 1.02 Yes No
2018AM3 O C K 2018-01-14.33319 1.000E-05 08:07:10.560 1.500E-01 0.500 F 0.057 0.346 +15° 36' 54.00" 1.000E-01 0.500 F 0.112 0.211 o 691 0.82 Yes No
2018AK2 O C K 2018-01-14.33776 1.000E-05 08:01:19.010 1.500E-01 0.500 F 0.027 -0.325 +15° 15' 30.40" 1.000E-01 0.500 F 0.179 0.073 o 691 0.68 Yes No
2018AM3 O C K 2018-01-14.34934 1.000E-05 08:07:15.230 1.500E-01 0.500 F 0.057 0.493 +15° 38' 29.00" 1.000E-01 0.500 F 0.112 0.301 o 691 1.17 Yes No
2018AK2 O C K 2018-01-14.35506 1.000E-05 08:01:17.280 1.500E-01 0.500 F 0.027 -0.170 +15° 17' 31.90" 1.000E-01 0.500 F 0.179 0.301 o 691 0.72 Yes No
2018AM3 O C K 2018-01-14.36664 1.000E-05 08:07:20.220 1.500E-01 0.500 F 0.057 0.376 +15° 40' 10.00" 1.000E-01 0.500 F 0.112 -0.186 o 691 0.85 Yes No
2018AF3 O C K 2018-01-14.39616 1.000E-05 08:48:10.350 1.500E-01 0.500 F 0.178 -0.149 +09° 12' 30.00" 1.000E-01 0.500 F 0.191 -0.101 o 691 0.36 Yes No
2018AF3 O C K 2018-01-14.40945 1.000E-05 08:48:09.040 1.500E-01 0.500 F 0.178 -0.181 +09° 12' 49.20" 1.000E-01 0.500 F 0.191 -0.062 o 691 0.39 Yes No
2018AF3 O C K 2018-01-14.42274 1.000E-05 08:48:07.740 1.500E-01 0.500 F 0.178 -0.105 +09° 13' 08.20" 1.000E-01 0.500 F 0.191 -0.205 o 691 0.47 Yes No
2018AG12 O C K 2018-01-14.50489 1.000E-05 11:12:53.820 1.500E-01 0.500 F 0.026 0.379 +12° 14' 10.50" 1.000E-01 0.500 F 0.150 0.588 o 691 1.42 Yes No
2018AG12 O C K 2018-01-14.52268 1.000E-05 11:12:57.940 1.500E-01 0.500 F 0.026 0.131 +12° 12' 56.00" 1.000E-01 0.500 F 0.150 0.288 o 691 0.64 Yes No
2017WF13 O C K 2018-01-15.12079 1.000E-05 03:07:20.150 1.500E-01 0.500 F -0.154 0.397 +29° 23' 57.40" 1.000E-01 0.500 F 0.254 -0.122 o 691 0.86 Yes No
2017WF13 O C K 2018-01-15.14117 1.000E-05 03:07:21.110 1.500E-01 0.500 F -0.154 0.408 +29° 23' 41.30" 1.000E-01 0.500 F 0.254 0.070 o 691 0.84 Yes No
2017WF13 O C K 2018-01-15.16167 1.000E-05 03:07:22.100 1.500E-01 0.500 F -0.154 0.722 +29° 23' 24.80" 1.000E-01 0.500 F 0.254 -0.013 o 691 1.47 Yes No
2017OP19 O C K 2018-01-15.17675 1.000E-05 03:42:52.330 1.500E-01 0.500 F -0.210 0.442 -15° 17' 31.50" 1.000E-01 0.500 F 0.075 -0.375 o 691 1.17 Yes No
2017OP19 O C K 2018-01-15.19104 1.000E-05 03:42:54.600 1.500E-01 0.500 F -0.210 0.487 -15° 17' 10.80" 1.000E-01 0.500 F 0.075 0.049 o 691 0.98 Yes No
2017OP19 O C K 2018-01-15.20528 1.000E-05 03:42:56.820 1.500E-01 0.500 F -0.210 -0.092 -15° 16' 50.80" 1.000E-01 0.500 F 0.075 -0.174 o 691 0.40 Yes No
2017UZ4 O C K 2018-01-15.22587 1.000E-05 04:53:35.310 1.500E-01 0.500 F -0.131 0.062 +00° 09' 43.00" 1.000E-01 0.500 F 0.086 -0.151 o 691 0.33 Yes No
2017UZ4 O C K 2018-01-15.23982 1.000E-05 04:53:35.670 1.500E-01 0.500 F -0.131 0.483 +00° 09' 49.20" 1.000E-01 0.500 F 0.086 0.017 o 691 0.97 Yes No
2017UZ4 O C K 2018-01-15.25376 1.000E-05 04:53:36.000 1.500E-01 0.500 F -0.131 0.435 +00° 09' 55.30" 1.000E-01 0.500 F 0.086 0.087 o 691 0.89 Yes No
2018AA4 O C 2018-01-15.38519 1.000E-05 09:23:40.300 1.500E-01 0.500 F 0.050 0.022 +16° 15' 11.30" 1.000E-01 0.500 F 0.291 0.012 19.8 V 0.70 0.21 o 691 0.05 Yes Yes
2018AA4 O C 2018-01-15.39256 1.000E-05 09:23:44.220 1.500E-01 0.500 F 0.050 0.037 +16° 15' 45.60" 1.000E-01 0.500 F 0.291 -0.045 19.7 V 0.70 0.10 o 691 0.12 Yes Yes
2018AA4 O C 2018-01-15.40002 1.000E-05 09:23:48.170 1.500E-01 0.500 F 0.050 -0.085 +16° 16' 20.10" 1.000E-01 0.500 F 0.291 -0.090 19.9 V 0.70 0.30 o 691 0.26 Yes Yes
2018AZ11 O C H 2018-01-15.41003 1.000E-05 09:37:36.780 1.500E-01 0.500 F 0.177 0.197 +18° 50' 31.10" 1.000E-01 0.500 F 0.435 -0.078 o 691 0.43 Yes No
2018AZ11 O C H 2018-01-15.41112 1.000E-05 09:37:37.170 1.500E-01 0.500 F 0.177 -0.300 +18° 50' 58.10" 1.000E-01 0.500 F 0.435 0.434 o 691 1.08 Yes No
2017YM6 O C 2018-01-15.42433 1.000E-05 10:14:12.710 1.500E-01 0.500 F 0.044 -0.069 +29° 22' 53.10" 1.000E-01 0.500 F 0.299 -0.126 20.3 V 0.70 0.00 o 691 0.30 Yes Yes
2017YM6 O C 2018-01-15.42794 1.000E-05 10:14:11.040 1.500E-01 0.500 F 0.044 0.174 +29° 22' 43.50" 1.000E-01 0.500 F 0.299 -0.055 20.4 V 0.70 0.10 o 691 0.38 Yes Yes
2017YM6 O C 2018-01-15.43156 1.000E-05 10:14:09.310 1.500E-01 0.500 F 0.044 -0.307 +29° 22' 34.20" 1.000E-01 0.500 F 0.299 0.362 20.8 V 0.70 0.50 o 691 0.96 Yes Yes
2018AT2 O C K 2018-01-15.49119 1.000E-05 11:04:07.340 1.500E-01 0.500 F 0.222 3.261 +28° 12' 20.30" 1.000E-01 0.500 F 0.180 -0.158 o 691 6.29 No No
2018AT2 O C K 2018-01-15.49774 1.000E-05 11:04:11.290 1.500E-01 0.500 F 0.222 2.834 +28° 11' 54.10" 1.000E-01 0.500 F 0.180 -0.018 o 691 5.45 No No
2018AT2 O C K 2018-01-15.50432 1.000E-05 11:04:15.140 1.500E-01 0.500 F 0.222 0.817 +28° 11' 27.80" 1.000E-01 0.500 F 0.180 0.380 o 691 1.86 Yes No
2018AM12 O C H 2018-01-16.07686 1.000E-05 01:50:06.950 1.500E-01 0.500 F -0.386 -0.023 -10° 00' 03.70" 1.000E-01 0.500 F 0.166 0.102 o 691 0.21 Yes No
2018AM12 O C H 2018-01-16.07808 1.000E-05 01:50:07.990 1.500E-01 0.500 F -0.386 -0.159 -10° 00' 19.00" 1.000E-01 0.500 F 0.166 -0.151 o 691 0.44 Yes No
2018AM12 O C H 2018-01-16.07929 1.000E-05 01:50:09.040 1.500E-01 0.500 F -0.386 -0.020 -10° 00' 33.70" 1.000E-01 0.500 F 0.166 0.070 o 691 0.15 Yes No
2018AG13 O C K 2018-01-16.08304 1.000E-05 01:08:23.320 1.500E-01 0.500 F -0.183 0.021 -06° 51' 14.00" 1.000E-01 0.500 F 0.242 0.058 o 691 0.12 Yes No
2018AG13 O C K 2018-01-16.09099 1.000E-05 01:08:24.470 1.500E-01 0.500 F -0.183 -0.258 -06° 50' 42.50" 1.000E-01 0.500 F 0.242 -0.016 o 691 0.52 Yes No
2018AG13 O C K 2018-01-16.09894 1.000E-05 01:08:25.670 1.500E-01 0.500 F -0.183 0.199 -06° 50' 10.80" 1.000E-01 0.500 F 0.242 0.106 o 691 0.45 Yes No
2017YJ7 O C K 2018-01-16.14012 1.000E-05 03:38:05.110 1.500E-01 0.500 F -0.340 -0.846 +15° 22' 54.70" 1.000E-01 0.500 F 0.156 0.133 o 691 1.95 Yes No
2017YJ7 O C K 2018-01-16.14993 1.000E-05 03:37:58.100 1.500E-01 0.500 F -0.340 -0.422 +15° 22' 00.20" 1.000E-01 0.500 F 0.156 0.058 o 691 0.99 Yes No
2015OX78 O C K 2018-01-16.17296 1.000E-05 04:17:56.490 1.500E-01 0.500 F -0.230 0.285 -29° 58' 11.00" 1.000E-01 0.500 F 0.218 0.189 o 691 0.69 Yes No
2015OX78 O C K 2018-01-16.17625 1.000E-05 04:17:56.790 1.500E-01 0.500 F -0.230 0.381 -29° 57' 26.00" 1.000E-01 0.500 F 0.218 0.154 o 691 0.83 Yes No
2015OX78 O C K 2018-01-16.17953 1.000E-05 04:17:57.080 1.500E-01 0.500 F -0.230 0.358 -29° 56' 41.00" 1.000E-01 0.500 F 0.218 0.242 o 691 0.87 Yes No
2018AV11 O C K 2018-01-16.18597 1.000E-05 04:29:24.950 1.500E-01 0.500 F -0.111 -0.292 +14° 05' 51.70" 1.000E-01 0.500 F 0.220 -0.417 o 691 1.03 Yes No
2018AV11 O C K 2018-01-16.19034 1.000E-05 04:29:20.430 1.500E-01 0.500 F -0.111 -0.922 +14° 05' 42.70" 1.000E-01 0.500 F 0.220 -0.197 o 691 1.93 Yes No
2018AV11 O C K 2018-01-16.19471 1.000E-05 04:29:15.950 1.500E-01 0.500 F -0.111 -0.933 +14° 05' 33.60" 1.000E-01 0.500 F 0.220 -0.036 o 691 1.92 Yes No
2018AX O C K 2018-01-16.20245 1.000E-05 04:51:23.400 1.500E-01 0.500 F -0.163 0.031 +08° 15' 42.60" 1.000E-01 0.500 F 0.161 -0.152 o 691 0.31 Yes No
2018AX O C K 2018-01-16.20727 1.000E-05 04:51:23.270 1.500E-01 0.500 F -0.163 -0.003 +08° 15' 23.30" 1.000E-01 0.500 F 0.161 0.036 o 691 0.07 Yes No
2018AX O C K 2018-01-16.21210 1.000E-05 04:51:23.150 1.500E-01 0.500 F -0.163 0.111 +08° 15' 03.90" 1.000E-01 0.500 F 0.161 0.164 o 691 0.40 Yes No
2017YB8 O C K 2018-01-16.23536 1.000E-05 05:54:48.280 1.500E-01 0.500 F 0.005 -0.275 -26° 10' 19.10" 1.000E-01 0.500 F 0.056 0.203 o 691 0.70 Yes No
2017YB8 O C K 2018-01-16.24089 1.000E-05 05:54:48.710 1.500E-01 0.500 F 0.005 0.331 -26° 10' 15.10" 1.000E-01 0.500 F 0.056 -0.177 o 691 0.77 Yes No
2017YB8 O C K 2018-01-16.24642 1.000E-05 05:54:49.140 1.500E-01 0.500 F 0.005 0.935 -26° 10' 10.90" 1.000E-01 0.500 F 0.056 -0.369 o 691 2.05 Yes No
2018AN12 O C H 2018-01-16.27742 1.000E-05 08:10:36.000 1.500E-01 0.500 F 0.056 0.515 +17° 43' 36.60" 1.000E-01 0.500 F 0.192 0.072 o 691 1.05 Yes No
2017XL62 O C H 2018-01-16.27882 1.000E-05 08:49:45.170 1.500E-01 0.500 F 0.056 -0.011 +03° 46' 58.60" 1.000E-01 0.500 F 0.114 0.395 o 691 0.79 Yes No
2018AN12 O C H 2018-01-16.28022 1.000E-05 08:10:36.870 1.500E-01 0.500 F 0.056 0.131 +17° 44' 12.20" 1.000E-01 0.500 F 0.192 0.176 o 691 0.45 Yes No
2017XL62 O C H 2018-01-16.28155 1.000E-05 08:49:44.850 1.500E-01 0.500 F 0.056 -0.339 +03° 46' 56.80" 1.000E-01 0.500 F 0.114 0.427 o 691 1.10 Yes No
2018AN12 O C H 2018-01-16.28295 1.000E-05 08:10:37.720 1.500E-01 0.500 F 0.056 -0.206 +17° 44' 46.70" 1.000E-01 0.500 F 0.192 0.083 o 691 0.45 Yes No
2017XL62 O C H 2018-01-16.28429 1.000E-05 08:49:44.620 1.500E-01 0.500 F 0.056 0.697 +03° 46' 54.50" 1.000E-01 0.500 F 0.114 -0.035 o 691 1.41 Yes No
2018AP12 O C K 2018-01-16.29267 1.000E-05 08:55:03.800 1.500E-01 0.500 F 0.021 0.469 -07° 45' 14.90" 1.000E-01 0.500 F 0.061 0.108 o 691 0.97 Yes No
2018AP12 O C K 2018-01-16.30468 1.000E-05 08:55:03.010 1.500E-01 0.500 F 0.021 -0.035 -07° 45' 43.60" 1.000E-01 0.500 F 0.061 0.007 o 691 0.07 Yes No
2017WS12 O C K 2018-01-16.32361 1.000E-05 09:14:25.210 1.500E-01 0.500 F 0.113 -0.051 +03° 54' 35.60" 1.000E-01 0.500 F 0.106 0.284 o 691 0.61 Yes No
2017WS12 O C K 2018-01-16.33154 1.000E-05 09:14:25.350 1.500E-01 0.500 F 0.113 -0.101 +03° 55' 00.90" 1.000E-01 0.500 F 0.106 -0.117 o 691 0.32 Yes No
2017WS12 O C K 2018-01-16.33947 1.000E-05 09:14:25.480 1.500E-01 0.500 F 0.113 -0.273 +03° 55' 26.90" 1.000E-01 0.500 F 0.106 0.191 o 691 0.70 Yes No
2018AK2 O C K 2018-01-17.21946 1.000E-05 07:57:15.420 1.500E-01 0.500 F -0.007 -0.436 +20° 45' 38.20" 1.000E-01 0.500 F 0.280 0.111 o 691 0.92 Yes No
2018BS O C K 2018-01-17.22312 1.000E-05 08:11:33.580 1.500E-01 0.500 F 0.008 -0.001 +19° 42' 45.20" 1.000E-01 0.500 F 0.282 0.317 o 691 0.64 Yes No
2018AK2 O C K 2018-01-17.22802 1.000E-05 07:57:14.580 1.500E-01 0.500 F -0.007 -0.178 +20° 46' 35.70" 1.000E-01 0.500 F 0.280 -0.109 o 691 0.43 Yes No
2018BS O C K 2018-01-17.23168 1.000E-05 08:11:34.670 1.500E-01 0.500 F 0.008 -0.157 +19° 42' 42.40" 1.000E-01 0.500 F 0.282 -0.104 o 691 0.38 Yes No
2018AD12 O C K 2018-01-17.36401 1.000E-05 08:41:01.070 1.500E-01 0.500 F 0.088 0.479 -02° 49' 31.00" 1.000E-01 0.500 F 0.042 -0.608 o 691 1.57 Yes No
2018AD12 O C K 2018-01-17.38387 1.000E-05 08:41:07.040 1.500E-01 0.500 F 0.088 -0.242 -02° 48' 19.50" 1.000E-01 0.500 F 0.042 0.220 o 691 0.66 Yes No
2017SV20 O C 2018-01-18.11719 1.000E-05 02:48:36.580 1.500E-01 0.500 F -0.225 -0.242 -04° 15' 23.30" 1.000E-01 0.500 F 0.268 -0.389 21.5 V 0.70 -0.19 o 691 0.92 Yes Yes
2017SV20 O C 2018-01-18.11939 1.000E-05 02:48:36.620 1.500E-01 0.500 F -0.225 -0.448 -04° 15' 19.40" 1.000E-01 0.500 F 0.268 0.329 21.3 V 0.70 -0.39 o 691 1.11 Yes Yes
2017SV20 O C 2018-01-18.12163 1.000E-05 02:48:36.710 1.500E-01 0.500 F -0.225 0.079 -04° 15' 16.70" 1.000E-01 0.500 F 0.268 -0.210 21.8 V 0.70 0.11 o 691 0.45 Yes Yes
2017NU6 O C K 2018-01-18.12571 1.000E-05 03:10:24.930 1.500E-01 0.500 F -0.380 -0.453 -03° 38' 03.20" 1.000E-01 0.500 F 0.225 0.457 o 691 1.30 Yes No
2017NU6 O C K 2018-01-18.14759 1.000E-05 03:10:30.360 1.500E-01 0.500 F -0.380 0.834 -03° 37' 23.70" 1.000E-01 0.500 F 0.225 -0.479 o 691 1.94 Yes No
2017OP19 O C K 2018-01-18.15211 1.000E-05 03:50:45.450 1.500E-01 0.500 F -0.157 -0.119 -14° 08' 19.20" 1.000E-01 0.500 F 0.073 0.658 o 691 1.35 Yes No
2017NU6 O C K 2018-01-18.16924 1.000E-05 03:10:35.610 1.500E-01 0.500 F -0.380 0.242 -03° 36' 43.00" 1.000E-01 0.500 F 0.225 0.206 o 691 0.64 Yes No
2017OP19 O C K 2018-01-18.17367 1.000E-05 03:50:48.730 1.500E-01 0.500 F -0.157 0.250 -14° 07' 49.90" 1.000E-01 0.500 F 0.073 0.282 o 691 0.76 Yes No
2018BQ O C K 2018-01-18.18824 1.000E-05 03:52:57.210 1.500E-01 0.500 F -0.316 -0.598 +00° 53' 27.80" 1.000E-01 0.500 F 0.143 0.048 o 691 1.22 Yes No
2018BQ O C K 2018-01-18.20096 1.000E-05 03:53:03.780 1.500E-01 0.500 F -0.316 0.466 +00° 52' 28.00" 1.000E-01 0.500 F 0.143 0.025 o 691 0.95 Yes No
2017YR3 O C K 2018-01-18.22226 1.000E-05 07:59:32.900 1.500E-01 0.500 F -0.044 0.120 -00° 56' 28.10" 1.000E-01 0.500 F 0.010 0.168 o 691 0.43 Yes No
2017YR3 O C K 2018-01-18.24349 1.000E-05 07:59:34.680 1.500E-01 0.500 F -0.044 -0.603 -00° 56' 03.90" 1.000E-01 0.500 F 0.010 0.054 o 691 1.27 Yes No
2017YR3 O C K 2018-01-18.26471 1.000E-05 07:59:36.490 1.500E-01 0.500 F -0.044 -0.194 -00° 55' 39.60" 1.000E-01 0.500 F 0.010 0.049 o 691 0.42 Yes No
1993RA O C 2018-01-18.29035 1.000E-05 04:53:11.300 1.500E-01 0.500 F -0.131 -0.209 -00° 04' 13.50" 1.000E-01 0.500 F 0.086 0.103 18.7 V 0.70 0.35 o 691 0.47 Yes Yes
2017XG62 O C K 2018-01-18.29450 1.000E-05 04:37:43.090 1.500E-01 0.500 F -0.086 0.228 +05° 24' 14.10" 1.000E-01 0.500 F 0.283 0.204 o 691 0.62 Yes No
1993RA O C 2018-01-18.30020 1.000E-05 04:53:13.280 1.500E-01 0.500 F -0.131 -0.199 -00° 03' 54.90" 1.000E-01 0.500 F 0.086 -0.332 18.8 V 0.70 0.45 o 691 0.78 Yes Yes
1993RA O C 2018-01-18.31004 1.000E-05 04:53:15.260 1.500E-01 0.500 F -0.131 -0.229 -00° 03' 35.30" 1.000E-01 0.500 F 0.086 0.253 19.0 V 0.70 0.65 o 691 0.69 Yes Yes
2017XG62 O C K 2018-01-18.31418 1.000E-05 04:37:43.470 1.500E-01 0.500 F -0.086 0.269 +05° 23' 24.60" 1.000E-01 0.500 F 0.283 -0.490 o 691 1.13 Yes No
2018AK2 O C K 2018-01-18.32372 1.000E-05 07:55:38.570 1.500E-01 0.500 F 0.018 0.944 +22° 47' 22.60" 1.000E-01 0.500 F 0.253 0.942 o 691 2.75 Yes No
2018AK2 O C K 2018-01-18.33601 1.000E-05 07:55:37.220 1.500E-01 0.500 F 0.018 -0.163 +22° 48' 41.60" 1.000E-01 0.500 F 0.253 -0.097 o 691 0.39 Yes No
2018AK2 O C K 2018-01-18.34822 1.000E-05 07:55:35.960 1.500E-01 0.500 F 0.018 -0.170 +22° 50' 01.80" 1.000E-01 0.500 F 0.253 0.696 o 691 1.52 Yes No
2018BS O C K 2018-01-18.40653 1.000E-05 08:14:19.820 1.500E-01 0.500 F 0.008 -0.028 +19° 36' 10.70" 1.000E-01 0.500 F 0.282 -0.068 o 691 0.15 Yes No
2018BS O C K 2018-01-18.41300 1.000E-05 08:14:20.690 1.500E-01 0.500 F 0.008 0.815 +19° 36' 08.50" 1.000E-01 0.500 F 0.282 0.200 o 691 1.73 Yes No
2018BS O C K 2018-01-18.41947 1.000E-05 08:14:21.440 1.500E-01 0.500 F 0.008 -0.074 +19° 36' 06.10" 1.000E-01 0.500 F 0.282 0.289 o 691 0.60 Yes No
2016CW31 O C 2018-01-18.44995 1.000E-05 10:44:27.970 1.500E-01 0.500 F 0.131 -0.117 +28° 47' 34.10" 1.000E-01 0.500 F 0.294 -0.368 21.0 V 0.70 -0.20 o 691 0.78 Yes Yes
2016CW31 O C 2018-01-18.45719 1.000E-05 10:44:27.800 1.500E-01 0.500 F 0.131 -0.140 +28° 47' 24.70" 1.000E-01 0.500 F 0.294 0.242 20.7 V 0.70 -0.49 o 691 0.57 Yes Yes
2016CW31 O C 2018-01-18.46441 1.000E-05 10:44:27.620 1.500E-01 0.500 F 0.131 -0.304 +28° 47' 14.30" 1.000E-01 0.500 F 0.294 -0.153 20.6 V 0.70 -0.59 o 691 0.68 Yes Yes
2018BO1 O C K 2018-01-18.51856 1.000E-05 10:26:02.710 1.500E-01 0.500 F 0.075 -1.099 +26° 58' 24.70" 1.000E-01 0.500 F 0.288 -0.090 o 691 2.21 Yes No
2018BO1 O C K 2018-01-18.53606 1.000E-05 10:26:00.600 1.500E-01 0.500 F 0.075 -1.927 +26° 58' 29.80" 1.000E-01 0.500 F 0.288 0.031 o 691 3.85 No No
2018AG13 O C K 2018-01-19.10159 1.000E-05 01:16:02.070 1.500E-01 0.500 F -0.200 -0.046 -03° 31' 10.40" 1.000E-01 0.500 F 0.091 -0.112 o 691 0.25 Yes No
2017XG2 O C K 2018-01-19.10822 1.000E-05 01:30:08.800 1.500E-01 0.500 F -0.242 -1.017 -03° 28' 33.90" 1.000E-01 0.500 F 0.139 0.411 20.7 R 0.70 0.26 o 691 2.33 Yes Yes
2018AG13 O C K 2018-01-19.11770 1.000E-05 01:16:04.490 1.500E-01 0.500 F -0.200 0.062 -03° 30' 06.40" 1.000E-01 0.500 F 0.091 -0.258 o 691 0.54 Yes No
2017XG2 O C K 2018-01-19.12433 1.000E-05 01:30:07.010 1.500E-01 0.500 F -0.242 0.415 -03° 29' 43.80" 1.000E-01 0.500 F 0.139 0.062 20.5 R 0.70 0.05 o 691 0.90 Yes Yes
2018AG13 O C K 2018-01-19.13367 1.000E-05 01:16:06.900 1.500E-01 0.500 F -0.200 0.284 -03° 29' 02.60" 1.000E-01 0.500 F 0.091 -0.050 o 691 0.59 Yes No
1999FP59 O C 2018-01-19.14922 1.000E-05 01:58:38.910 1.500E-01 0.500 F -0.261 1.301 +13° 55' 16.40" 1.000E-01 0.500 F 0.187 0.070 21.4 V 0.70 0.10 o 691 2.61 Yes Yes
2017VX1 O C H 2018-01-19.16195 1.000E-05 00:52:48.250 1.500E-01 0.500 F -0.192 0.231 +15° 10' 05.80" 1.000E-01 0.500 F 0.403 -0.498 20.2 R 0.70 0.84 o 691 1.10 Yes Yes
1999FP59 O C 2018-01-19.16793 1.000E-05 01:58:40.910 1.500E-01 0.500 F -0.261 0.163 +13° 55' 27.40" 1.000E-01 0.500 F 0.187 -0.071 21.3 V 0.70 0.00 o 691 0.36 Yes Yes
2017VX1 O C H 2018-01-19.18061 1.000E-05 00:52:49.230 1.500E-01 0.500 F -0.192 0.361 +15° 09' 18.90" 1.000E-01 0.500 F 0.403 0.317 20.0 R 0.70 0.64 o 691 0.96 Yes Yes
1999FP59 O C 2018-01-19.18654 1.000E-05 01:58:42.990 1.500E-01 0.500 F -0.261 0.301 +13° 55' 38.30" 1.000E-01 0.500 F 0.187 -0.236 21.3 V 0.70 0.00 o 691 0.77 Yes Yes
2017UR7 O C 2018-01-19.20515 1.000E-05 03:06:18.510 1.500E-01 0.500 F -0.217 -0.007 +18° 19' 37.20" 1.000E-01 0.500 F 0.242 -0.177 20.1 V 0.70 0.48 o 691 0.36 Yes Yes
2017SS19 O C K 2018-01-19.21606 1.000E-05 03:08:29.460 1.500E-01 0.500 F -0.276 0.853 -02° 41' 59.20" 1.000E-01 0.500 F 0.182 0.173 o 691 1.76 Yes No
2017UR7 O C 2018-01-19.22271 1.000E-05 03:06:23.780 1.500E-01 0.500 F -0.217 -0.014 +18° 20' 21.20" 1.000E-01 0.500 F 0.242 -0.138 19.9 V 0.70 0.28 o 691 0.28 Yes Yes
2017SS19 O C K 2018-01-19.23353 1.000E-05 03:08:34.830 1.500E-01 0.500 F -0.276 -0.437 -02° 41' 48.20" 1.000E-01 0.500 F 0.182 0.087 o 691 0.90 Yes No
2017UR7 O C 2018-01-19.24015 1.000E-05 03:06:29.000 1.500E-01 0.500 F -0.217 -0.417 +18° 21' 05.00" 1.000E-01 0.500 F 0.242 0.077 20.8 V 0.70 1.18 o 691 0.86 Yes Yes
2017SS19 O C K 2018-01-19.25094 1.000E-05 03:08:40.310 1.500E-01 0.500 F -0.276 0.068 -02° 41' 36.90" 1.000E-01 0.500 F 0.182 0.328 o 691 0.68 Yes No
2017NL6 O C H 2018-01-19.29880 1.000E-05 05:22:29.540 1.500E-01 0.500 F -0.194 0.136 +30° 51' 53.10" 1.000E-01 0.500 F 0.285 -0.025 20.2 R 0.70 -0.49 o 691 0.28 Yes Yes
2017NL6 O C H 2018-01-19.31145 1.000E-05 05:22:29.650 1.500E-01 0.500 F -0.194 0.429 +30° 51' 45.60" 1.000E-01 0.500 F 0.285 -0.178 o 691 0.94 Yes No
2017YO6 O C K 2018-01-19.31774 1.000E-05 06:05:09.750 1.500E-01 0.500 F -0.166 -0.110 +17° 17' 05.40" 1.000E-01 0.500 F 0.359 -0.537 o 691 1.13 Yes No
2017YO6 O C K 2018-01-19.33169 1.000E-05 06:05:07.510 1.500E-01 0.500 F -0.166 0.071 +17° 16' 19.40" 1.000E-01 0.500 F 0.359 -0.179 o 691 0.40 Yes No
2017YO6 O C K 2018-01-19.34556 1.000E-05 06:05:05.260 1.500E-01 0.500 F -0.166 -0.198 +17° 15' 33.20" 1.000E-01 0.500 F 0.359 -0.261 o 691 0.68 Yes No
2011EB7 O C H 2018-01-19.36711 1.000E-05 08:13:45.630 1.500E-01 0.500 F 0.104 -0.117 -08° 57' 40.60" 1.000E-01 0.500 F -0.054 0.048 18.7 R 0.70 -0.15 o 691 0.26 Yes Yes
2011EB7 O C H 2018-01-19.37507 1.000E-05 08:13:45.740 1.500E-01 0.500 F 0.104 -0.059 -08° 57' 20.20" 1.000E-01 0.500 F -0.054 -0.235 19.4 R 0.70 0.55 o 691 0.49 Yes Yes
2011EB7 O C H 2018-01-19.38300 1.000E-05 08:13:45.870 1.500E-01 0.500 F 0.104 0.275 -08° 56' 59.60" 1.000E-01 0.500 F -0.054 -0.252 19.3 R 0.70 0.45 o 691 0.76 Yes Yes
2017YA6 O C K 2018-01-19.38801 1.000E-05 07:37:59.030 1.500E-01 0.500 F -0.052 0.283 -15° 23' 24.60" 1.000E-01 0.500 F 0.027 -0.002 18.8 R 0.70 -0.31 o 691 0.59 Yes Yes
2009EV O C H 2018-01-19.39514 1.000E-05 09:32:56.490 1.500E-01 0.500 F 0.183 0.157 +00° 49' 58.70" 1.000E-01 0.500 F 0.238 0.125 19.6 R 0.70 0.29 o 691 0.40 Yes Yes
2017YF7 O C H 2018-01-19.39631 1.000E-05 09:24:41.680 1.500E-01 0.500 F 0.094 -0.215 +09° 39' 37.20" 1.000E-01 0.500 F 0.215 -0.370 20.3 R 0.70 0.73 o 691 0.87 Yes Yes
2009EV O C H 2018-01-19.40524 1.000E-05 09:32:55.140 1.500E-01 0.500 F 0.183 -0.004 +00° 50' 30.30" 1.000E-01 0.500 F 0.238 -0.232 19.4 R 0.70 0.09 o 691 0.47 Yes Yes
2017YF7 O C H 2018-01-19.40642 1.000E-05 09:24:40.900 1.500E-01 0.500 F 0.094 0.101 +09° 38' 59.40" 1.000E-01 0.500 F 0.215 0.592 19.6 R 0.70 0.03 o 691 1.22 Yes Yes
2017YA6 O C K 2018-01-19.40816 1.000E-05 07:38:05.050 1.500E-01 0.500 F -0.052 -0.349 -15° 25' 15.60" 1.000E-01 0.500 F 0.027 0.165 18.4 R 0.70 -0.71 o 691 0.82 Yes Yes
2009EV O C H 2018-01-19.41548 1.000E-05 09:32:53.770 1.500E-01 0.500 F 0.183 -0.200 +00° 51' 03.00" 1.000E-01 0.500 F 0.238 0.071 19.9 R 0.70 0.59 o 691 0.43 Yes Yes
2017YF7 O C H 2018-01-19.41665 1.000E-05 09:24:40.100 1.500E-01 0.500 F 0.094 0.206 +09° 38' 19.70" 1.000E-01 0.500 F 0.215 0.159 19.9 R 0.70 0.33 o 691 0.53 Yes Yes
2018BS O C K 2018-01-19.42118 1.000E-05 08:16:42.900 1.500E-01 0.500 F 0.010 0.844 +19° 30' 29.10" 1.000E-01 0.500 F 0.308 -0.100 o 691 1.75 Yes No
2018BS O C K 2018-01-19.43398 1.000E-05 08:16:44.460 1.500E-01 0.500 F 0.010 0.352 +19° 30' 24.10" 1.000E-01 0.500 F 0.308 -0.087 o 691 0.75 Yes No
2018BS O C K 2018-01-19.44666 1.000E-05 08:16:46.050 1.500E-01 0.500 F 0.010 0.325 +19° 30' 18.80" 1.000E-01 0.500 F 0.308 -0.348 o 691 0.96 Yes No
2018AL12 O C K 2018-01-19.49061 1.000E-05 09:52:36.110 1.500E-01 0.500 F 0.065 0.917 +22° 37' 49.70" 1.000E-01 0.500 F 0.249 -0.266 o 691 1.93 Yes No
2018AM13 O C K 2018-01-19.50126 1.000E-05 10:04:26.160 1.500E-01 0.500 F 0.101 -0.220 +13° 25' 03.20" 1.000E-01 0.500 F 0.327 0.286 o 691 0.74 Yes No
2018AL12 O C K 2018-01-19.50365 1.000E-05 09:52:43.410 1.500E-01 0.500 F 0.065 1.261 +22° 37' 46.40" 1.000E-01 0.500 F 0.249 0.005 o 691 2.55 Yes No
2018AM13 O C K 2018-01-19.51428 1.000E-05 10:04:24.870 1.500E-01 0.500 F 0.101 0.560 +13° 26' 17.50" 1.000E-01 0.500 F 0.327 0.736 o 691 1.88 Yes No
2018AM13 O C K 2018-01-19.52728 1.000E-05 10:04:23.540 1.500E-01 0.500 F 0.101 0.590 +13° 27' 31.10" 1.000E-01 0.500 F 0.327 0.659 o 691 1.80 Yes No
2018AE4 O C K 2018-01-19.53126 1.000E-05 10:09:54.050 1.500E-01 0.500 F 0.089 -0.185 +02° 11' 40.20" 1.000E-01 0.500 F 0.135 -0.196 o 691 0.54 Yes No
2018AE4 O C K 2018-01-19.53975 1.000E-05 10:09:49.450 1.500E-01 0.500 F 0.089 -0.598 +02° 10' 52.60" 1.000E-01 0.500 F 0.135 0.685 o 691 1.83 Yes No
2018AE4 O C K 2018-01-19.54815 1.000E-05 10:09:45.180 1.500E-01 0.500 F 0.089 2.856 +02° 10' 02.00" 1.000E-01 0.500 F 0.135 -2.029 o 691 6.98 No No
2017RD15 O C K 2018-01-20.08816 1.000E-05 00:51:20.710 1.500E-01 0.500 F -0.226 0.291 +02° 30' 31.70" 1.000E-01 0.500 F 0.325 0.027 o 691 0.59 Yes No
2017RD15 O C K 2018-01-20.09449 1.000E-05 00:51:21.770 1.500E-01 0.500 F -0.226 0.224 +02° 30' 42.50" 1.000E-01 0.500 F 0.325 -0.198 o 691 0.60 Yes No
2018AG13 O C K 2018-01-20.10162 1.000E-05 01:18:35.780 1.500E-01 0.500 F -0.226 0.165 -02° 24' 50.50" 1.000E-01 0.500 F 0.230 -0.049 o 691 0.36 Yes No
2018AG13 O C K 2018-01-20.11710 1.000E-05 01:18:38.090 1.500E-01 0.500 F -0.226 -0.167 -02° 23' 48.60" 1.000E-01 0.500 F 0.230 0.247 o 691 0.62 Yes No
2018AG13 O C K 2018-01-20.13253 1.000E-05 01:18:40.420 1.500E-01 0.500 F -0.226 -0.133 -02° 22' 47.60" 1.000E-01 0.500 F 0.230 -0.161 o 691 0.44 Yes No
2018AM12 O C H 2018-01-20.14529 1.000E-05 02:40:27.970 1.500E-01 0.500 F -0.384 0.406 -20° 34' 39.10" 1.000E-01 0.500 F -0.143 -0.047 o 691 0.82 Yes No
2017SV20 O C K 2018-01-20.14672 1.000E-05 02:49:36.110 1.500E-01 0.500 F -0.304 -0.151 -03° 26' 37.10" 1.000E-01 0.500 F 0.250 -0.122 o 691 0.39 Yes No
2018AM12 O C H 2018-01-20.15142 1.000E-05 02:40:31.390 1.500E-01 0.500 F -0.384 0.053 -20° 35' 20.60" 1.000E-01 0.500 F -0.143 -0.008 18.5 R 0.70 0.18 o 691 0.11 Yes Yes
2017SV20 O C K 2018-01-20.15280 1.000E-05 02:49:36.300 1.500E-01 0.500 F -0.304 0.048 -03° 26' 28.40" 1.000E-01 0.500 F 0.250 -0.164 o 691 0.34 Yes No
2018AM12 O C H 2018-01-20.15750 1.000E-05 02:40:34.840 1.500E-01 0.500 F -0.384 0.496 -20° 36' 01.20" 1.000E-01 0.500 F -0.143 0.513 18.3 R 0.70 -0.02 o 691 1.43 Yes Yes
2017SV20 O C K 2018-01-20.15888 1.000E-05 02:49:36.450 1.500E-01 0.500 F -0.304 -0.357 -03° 26' 19.60" 1.000E-01 0.500 F 0.250 -0.107 o 691 0.74 Yes No
2013QH48 O C H 2018-01-20.16373 1.000E-05 02:31:01.600 1.500E-01 0.500 F -0.221 0.640 +04° 14' 14.00" 1.000E-01 0.500 F 0.221 0.243 20.6 R 0.70 0.71 o 691 1.44 Yes Yes
2017NU6 O C K 2018-01-20.16829 1.000E-05 03:18:48.460 1.500E-01 0.500 F -0.228 0.074 -02° 35' 56.10" 1.000E-01 0.500 F 0.220 0.079 o 691 0.22 Yes No
2013QH48 O C H 2018-01-20.17203 1.000E-05 02:31:03.490 1.500E-01 0.500 F -0.221 -0.059 +04° 14' 29.30" 1.000E-01 0.500 F 0.221 0.184 20.3 R 0.70 0.41 o 691 0.39 Yes Yes
2018BP O C K 2018-01-20.17320 1.000E-05 03:02:23.090 1.500E-01 0.500 F -0.210 0.083 +05° 31' 52.00" 1.000E-01 0.500 F 0.179 0.070 o 691 0.22 Yes No
2017NU6 O C K 2018-01-20.17661 1.000E-05 03:18:50.440 1.500E-01 0.500 F -0.228 0.044 -02° 35' 41.40" 1.000E-01 0.500 F 0.220 -0.216 20.4 R 0.70 0.01 o 691 0.44 Yes Yes
2013QH48 O C H 2018-01-20.18033 1.000E-05 02:31:05.420 1.500E-01 0.500 F -0.221 -0.177 +04° 14' 43.20" 1.000E-01 0.500 F 0.221 -1.272 21.1 R 0.70 1.21 o 691 2.62 Yes Yes
2018BP O C K 2018-01-20.18150 1.000E-05 03:02:25.990 1.500E-01 0.500 F -0.210 -0.200 +05° 32' 09.20" 1.000E-01 0.500 F 0.179 0.014 o 691 0.40 Yes No
2017NU6 O C K 2018-01-20.18489 1.000E-05 03:18:52.400 1.500E-01 0.500 F -0.228 -0.153 -02° 35' 26.30" 1.000E-01 0.500 F 0.220 -0.040 o 691 0.32 Yes No
2000EW70 O C K 2018-01-20.19183 1.000E-05 03:43:56.810 1.500E-01 0.500 F -0.320 0.540 +03° 22' 27.70" 1.000E-01 0.500 F 0.087 0.310 20.9 R 0.70 -0.32 o 691 1.25 Yes Yes
2017OP19 O C K 2018-01-20.19646 1.000E-05 03:55:57.620 1.500E-01 0.500 F -0.180 -0.367 -13° 21' 57.60" 1.000E-01 0.500 F 0.128 0.335 o 691 1.00 Yes No
2017OP19 O C K 2018-01-20.20656 1.000E-05 03:55:59.120 1.500E-01 0.500 F -0.180 -0.097 -13° 21' 43.50" 1.000E-01 0.500 F 0.128 0.788 o 691 1.60 Yes No
2000EW70 O C K 2018-01-20.21209 1.000E-05 03:43:58.300 1.500E-01 0.500 F -0.320 -0.041 +03° 22' 56.70" 1.000E-01 0.500 F 0.087 0.031 21.2 R 0.70 -0.02 o 691 0.10 Yes Yes
2017OP19 O C K 2018-01-20.21664 1.000E-05 03:56:00.610 1.500E-01 0.500 F -0.180 0.058 -13° 21' 30.60" 1.000E-01 0.500 F 0.128 0.062 o 691 0.17 Yes No
2018BL1 O C K 2018-01-20.22956 1.000E-05 09:39:29.260 1.500E-01 0.500 F 0.010 0.369 +12° 54' 00.60" 1.000E-01 0.500 F 0.266 -0.133 o 691 0.79 Yes No
2018AB12 O C K 2018-01-20.24909 1.000E-05 09:47:44.910 1.500E-01 0.500 F 0.144 -0.687 +07° 43' 30.20" 1.000E-01 0.500 F 0.220 0.276 o 691 1.49 Yes No

[1-200] [201-400] [401-600] [601-800] [801-1000] [1001-1200] [1201-1400] [1401-1600] [1601-1800] [1801-2000] [2001-2200] [2201-2400] [2401-2600] [2601-2800] [2801-3000] [3001-3200] [3201-3400] [3401-3600] [3601-3800] [3801-4000] [4001-4200] [4201-4400] [4401-4600] [4601-4800] [4801-5000] [5001-5200] [5201-5400] [5401-5600] [5601-5800] [5801-6000] [6001-6200] [6201-6400] [6401-6600] [6601-6800] [6801-7000] [7001-7200] [7201-7400] [7401-7600] [7601-7800] [7801-8000] [8001-8200] [8201-8400] [8401-8600] [8601-8800] [8801-9000] [9001-9200] [9201-9400] [9401-9600] [9601-9800] [9801-10000] [10001-10200] [10201-10400] [10401-10600] [10601-10800] [10801-11000] [11001-11200] [11201-11400] [11401-11600] [11601-11800] [11801-12000] [12001-12200] [12201-12400] [12401-12600] [12601-12800] [12801-13000] [13001-13200] [13201-13400] [13401-13600] [13601-13800] [13801-14000] [14001-14200] [14201-14400] [14401-14600] [14601-14800] [14801-15000] [15001-15200] [15201-15400] [15401-15600] [15601-15800] [15801-16000] [16001-16200] [16201-16400] [16401-16600] [16601-16800] [16801-17000] [17001-17200] [17201-17400] [17401-17600] [17601-17800] [17801-18000] [18001-18200] [18201-18400] [18401-18600] [18601-18800] [18801-19000] [19001-19200] [19201-19400] [19401-19600] [19601-19800] [19801-20000] [20001-20200] [20201-20400] [20401-20600] [20601-20800] [20801-21000] [21001-21200] [21201-21400] [21401-21600] [21601-21800] [21801-22000] [22001-22200] [22201-22400] [22401-22600] [22601-22800] [22801-23000] [23001-23200] [23201-23400] [23401-23600] [23601-23800] [23801-24000] [24001-24200] [24201-24400] [24401-24600] [24601-24800] [24801-25000] [25001-25200] [25201-25400] [25401-25600] [25601-25800] [25801-26000] [26001-26200] [26201-26400] [26401-26600] [26601-26800] [26801-27000] [27001-27200] [27201-27400] [27401-27600] [27601-27800] [27801-28000] [28001-28200] [28201-28400] [28401-28600] [28601-28800] [28801-29000] [29001-29200] [29201-29400] [29401-29600] [29601-29800] [29801-30000] [30001-30200] [30201-30400] [30401-30600] [30601-30800] [30801-31000] [31001-31200] [31201-31400] [31401-31600] [31601-31800] [31801-32000] [32001-32200] [32201-32400] [32401-32600] [32601-32800] [32801-33000] [33001-33200] [33201-33400] [33401-33600] [33601-33800] [33801-34000] [34001-34200] [34201-34400] [34401-34600] [34601-34800] [34801-35000] [35001-35200] [35201-35400] [35401-35600] [35601-35800] [35801-36000] [36001-36200] [36201-36400] [36401-36600] [36601-36800] [36801-37000] [37001-37200] [37201-37400] [37401-37600] [37601-37800] [37801-38000] [38001-38200] [38201-38400] [38401-38600] [38601-38800] [38801-39000] [39001-39200] [39201-39400] [39401-39600] [39601-39800] [39801-40000] [40001-40200] [40201-40400] [40401-40600] [40601-40800] [40801-41000] [41001-41200] [41201-41400] [41401-41600] [41601-41800] [41801-42000] [42001-42200] [42201-42400] [42401-42600] [42601-42800] [42801-43000] [43001-43200] [43201-43400] [43401-43600] [43601-43800] [43801-44000] [44001-44200] [44201-44400] [44401-44600] [44601-44800] [44801-45000] [45001-45200] [45201-45400] [45401-45600] [45601-45800] [45801-46000] [46001-46200] [46201-46400] [46401-46600] [46601-46800] [46801-47000] [47001-47200] [47201-47400] [47401-47600] [47601-47800] [47801-48000] [48001-48200] [48201-48400] [48401-48600] [48601-48800] [48801-49000] [49001-49200] [49201-49400] [49401-49600] [49601-49800] [49801-50000] [50001-50200] [50201-50388]